Time;durP1;ratioP1;P1;durP2;ratioP2;P2;SDS_P1;SDS_P2;PMS_P1;PMS_P2;Temp;Humidity;BMP_temperature;BMP_pressure;BME280_temperature;BME280_humidity;BME280_pressure;Samples;Min_cycle;Max_cycle;Signal;HPM_P1;HPM_P2
2023/03/11 00:00:15;;;;;;;8.25;2.30;;;;;;;4.05;60.81;100636.69;5070496;28;20024;-67
2023/03/11 00:02:40;;;;;;;9.27;2.20;;;;;;;4.00;60.68;100638.38;5069693;28;20029;-66
2023/03/11 00:05:07;;;;;;;6.78;2.58;;;;;;;4.01;60.93;100642.78;5067554;28;20077;-66
2023/03/11 00:07:32;;;;;;;6.80;2.30;;;;;;;3.96;61.33;100639.84;5069225;28;20479;-66
2023/03/11 00:09:59;;;;;;;8.82;2.10;;;;;;;3.96;61.28;100639.84;5069010;28;20067;-66
2023/03/11 00:12:24;;;;;;;6.03;2.05;;;;;;;3.92;60.59;100640.28;5069275;28;20036;-66
2023/03/11 00:14:49;;;;;;;5.18;2.25;;;;;;;3.90;61.21;100636.91;5068363;28;20046;-66
2023/03/11 00:17:15;;;;;;;8.45;2.30;;;;;;;3.87;61.85;100644.72;5069305;28;20021;-66
2023/03/11 00:19:40;;;;;;;9.90;2.20;;;;;;;3.82;61.58;100639.91;5070119;28;20081;-66
2023/03/11 00:22:05;;;;;;;10.27;2.25;;;;;;;3.83;62.59;100651.72;5068429;28;20029;-66
2023/03/11 00:24:30;;;;;;;5.97;2.30;;;;;;;3.77;61.73;100655.28;5059393;28;20043;-66
2023/03/11 00:26:56;;;;;;;4.05;2.08;;;;;;;3.74;62.67;100653.00;5064279;28;20041;-66
2023/03/11 00:29:21;;;;;;;8.40;2.28;;;;;;;3.70;62.23;100658.06;5050145;28;20033;-66
2023/03/11 00:31:47;;;;;;;8.38;2.13;;;;;;;3.64;62.22;100658.91;5049136;28;20082;-66
2023/03/11 00:34:12;;;;;;;6.07;2.30;;;;;;;3.65;63.10;100666.91;5050040;28;20046;-66
2023/03/11 00:36:37;;;;;;;8.23;2.33;;;;;;;3.60;62.23;100666.72;5050063;28;20025;-66
2023/03/11 00:39:07;;;;;;;3.35;2.08;;;;;;;3.57;62.62;100680.88;5048978;28;20546;-66
2023/03/11 00:41:33;;;;;;;5.53;2.70;;;;;;;3.56;62.14;100678.34;5059194;28;20036;-66
2023/03/11 00:43:59;;;;;;;5.88;2.55;;;;;;;3.53;62.13;100682.34;5068509;28;20033;-66
2023/03/11 00:46:25;;;;;;;8.85;2.53;;;;;;;3.54;62.17;100689.53;5069231;28;20365;-66
2023/03/11 00:48:51;;;;;;;7.90;2.63;;;;;;;3.54;62.07;100681.31;5069719;28;20028;-66
2023/03/11 00:51:22;;;;;;;7.63;2.25;;;;;;;3.54;62.50;100675.81;5069788;28;20031;-67
2023/03/11 00:53:48;;;;;;;9.23;2.85;;;;;;;3.54;62.53;100681.31;5068848;28;20499;-66
2023/03/11 00:56:14;;;;;;;5.30;2.55;;;;;;;3.53;62.38;100687.00;5069824;28;20029;-66
2023/03/11 00:58:42;;;;;;;7.07;2.50;;;;;;;3.52;62.46;100683.41;5063928;28;20426;-66
2023/03/11 01:01:08;;;;;;;6.72;2.70;;;;;;;3.49;62.32;100688.47;5067461;28;20383;-66
2023/03/11 01:03:34;;;;;;;12.20;3.10;;;;;;;3.48;62.94;100697.75;5069582;28;20066;-66
2023/03/11 01:05:59;;;;;;;7.25;2.65;;;;;;;3.47;62.43;100701.56;5069219;28;20797;-66
2023/03/11 01:08:25;;;;;;;5.55;2.30;;;;;;;3.43;62.68;100704.72;5069550;28;20518;-66
2023/03/11 01:10:51;;;;;;;9.05;2.58;;;;;;;3.43;63.18;100715.69;5069510;28;20037;-66
2023/03/11 01:13:19;;;;;;;8.30;3.17;;;;;;;3.42;62.67;100704.94;5067078;28;20383;-67
2023/03/11 01:15:44;;;;;;;4.85;2.38;;;;;;;3.41;62.82;100714.22;5066260;28;20717;-66
2023/03/11 01:18:10;;;;;;;9.30;2.45;;;;;;;3.41;62.74;100717.78;5069382;28;20047;-66
2023/03/11 01:20:37;;;;;;;8.63;2.67;;;;;;;3.44;63.04;100719.28;5068611;28;20017;-66
2023/03/11 01:23:03;;;;;;;9.10;2.67;;;;;;;3.41;62.71;100716.94;5069313;28;20097;-66
2023/03/11 01:25:28;;;;;;;7.15;2.55;;;;;;;3.44;62.45;100724.78;5069461;28;20418;-66
2023/03/11 01:27:53;;;;;;;6.30;2.50;;;;;;;3.42;62.39;100727.75;5069971;28;20020;-67
2023/03/11 01:30:22;;;;;;;7.07;2.50;;;;;;;3.42;62.28;100726.91;5071089;28;20344;-66
2023/03/11 01:32:47;;;;;;;5.15;2.42;;;;;;;3.40;63.30;100723.50;5072211;28;20178;-66
2023/03/11 01:35:15;;;;;;;11.15;2.90;;;;;;;3.41;63.38;100722.44;5072355;28;20115;-66
2023/03/11 01:37:40;;;;;;;8.05;2.60;;;;;;;3.39;62.68;100727.31;5072892;28;20028;-66
2023/03/11 01:40:13;;;;;;;8.50;2.90;;;;;;;3.37;62.38;100726.66;5073149;28;20025;-66
2023/03/11 01:42:38;;;;;;;5.38;2.55;;;;;;;3.38;62.58;100722.84;5072585;28;20063;-67
2023/03/11 01:45:28;;;;;;;9.02;2.50;;;;;;;3.42;63.00;100729.63;5064345;28;20067;-66
2023/03/11 01:47:53;;;;;;;8.02;3.03;;;;;;;3.34;63.16;100733.44;5052409;28;20021;-66
2023/03/11 01:50:19;;;;;;;8.95;2.90;;;;;;;3.32;62.63;100732.78;5053357;28;20033;-66
2023/03/11 01:52:44;;;;;;;9.35;2.33;;;;;;;3.31;62.70;100730.25;5052740;28;20218;-67
2023/03/11 01:55:12;;;;;;;9.95;2.58;;;;;;;3.31;63.03;100724.78;5072191;28;20111;-67
2023/03/11 01:57:42;;;;;;;10.20;3.22;;;;;;;3.27;62.84;100727.06;5072699;28;20799;-67
2023/03/11 02:00:10;;;;;;;6.82;3.20;;;;;;;3.25;62.93;100720.09;5067725;28;20438;-66
2023/03/11 02:02:41;;;;;;;7.43;2.83;;;;;;;3.23;63.72;100739.53;5057709;28;20021;-67
2023/03/11 02:05:08;;;;;;;7.45;3.20;;;;;;;3.20;63.34;100728.97;5062576;28;20036;-67
2023/03/11 02:07:33;;;;;;;11.50;3.50;;;;;;;3.20;63.89;100728.97;5064652;28;20021;-67
2023/03/11 02:09:58;;;;;;;7.85;2.75;;;;;;;3.18;63.39;100733.78;5051493;28;20037;-66
2023/03/11 02:12:27;;;;;;;7.47;2.78;;;;;;;3.17;63.13;100730.22;5065712;28;20025;-67
2023/03/11 02:14:55;;;;;;;8.43;2.90;;;;;;;3.15;63.40;100732.31;5070912;28;20136;-67
2023/03/11 02:17:21;;;;;;;7.18;2.80;;;;;;;3.15;63.37;100737.81;5067627;28;20032;-67
2023/03/11 02:20:14;;;;;;;9.43;2.92;;;;;;;3.19;63.90;100739.09;5072234;28;20577;-66
2023/03/11 02:22:41;;;;;;;8.00;2.60;;;;;;;3.12;62.86;100740.97;5056823;28;20044;-66
2023/03/11 02:25:23;;;;;;;9.48;2.63;;;;;;;3.14;63.50;100738.88;5071168;28;20020;-67
2023/03/11 02:27:52;;;;;;;6.70;2.90;;;;;;;3.13;63.09;100744.53;5071503;28;20499;-67
2023/03/11 02:30:20;;;;;;;9.27;3.00;;;;;;;3.12;63.76;100746.44;5064753;28;20039;-66
2023/03/11 02:32:47;;;;;;;5.40;2.47;;;;;;;3.12;63.32;100743.72;5066942;28;20097;-66
2023/03/11 02:35:13;;;;;;;8.57;2.50;;;;;;;3.08;62.87;100741.59;5065491;28;20890;-66
2023/03/11 02:37:50;;;;;;;5.13;2.55;;;;;;;3.08;63.82;100745.16;5068451;28;20028;-66
2023/03/11 02:40:21;;;;;;;12.77;2.70;;;;;;;3.10;63.46;100739.47;5069472;28;20032;-66
2023/03/11 02:42:48;;;;;;;7.72;2.47;;;;;;;3.05;63.08;100737.34;5071940;28;20028;-66
2023/03/11 02:45:17;;;;;;;9.98;3.17;;;;;;;3.05;63.06;100731.88;5069252;28;20031;-66
2023/03/11 02:47:42;;;;;;;6.78;2.70;;;;;;;3.01;62.83;100733.34;5067828;28;20054;-66
2023/03/11 02:50:12;;;;;;;8.27;3.00;;;;;;;2.98;63.40;100741.97;5064786;28;20477;-66
2023/03/11 02:52:38;;;;;;;6.75;3.00;;;;;;;2.99;63.65;100740.94;5068987;28;20028;-66
2023/03/11 02:55:04;;;;;;;8.88;3.22;;;;;;;2.97;63.38;100732.06;5070801;28;20025;-66
2023/03/11 02:57:29;;;;;;;8.05;3.35;;;;;;;2.98;63.13;100736.47;5071110;28;20065;-66
2023/03/11 02:59:55;;;;;;;11.73;3.78;;;;;;;2.95;63.34;100736.91;5070007;28;20036;-66
2023/03/11 03:02:20;;;;;;;10.82;3.20;;;;;;;2.94;63.52;100736.06;5068537;28;20526;-66
2023/03/11 03:04:45;;;;;;;9.43;3.10;;;;;;;2.96;63.64;100738.59;5068315;28;20064;-66
2023/03/11 03:07:10;;;;;;;9.85;3.50;;;;;;;2.93;63.59;100739.84;5067899;28;20033;-66
2023/03/11 03:09:36;;;;;;;7.30;2.47;;;;;;;2.91;63.56;100741.97;5068312;28;20465;-66
2023/03/11 03:12:03;;;;;;;10.18;2.75;;;;;;;2.92;62.95;100740.06;5070973;28;20032;-67
2023/03/11 03:14:28;;;;;;;6.18;2.83;;;;;;;2.88;63.37;100736.06;5068600;28;20052;-67
2023/03/11 03:16:54;;;;;;;6.50;2.90;;;;;;;2.86;63.78;100755.41;5069701;28;20558;-66
2023/03/11 03:19:19;;;;;;;6.38;2.72;;;;;;;2.87;63.80;100759.88;5069567;28;20468;-66
2023/03/11 03:21:45;;;;;;;6.78;2.60;;;;;;;2.87;63.70;100765.38;5058099;28;20029;-66
2023/03/11 03:24:10;;;;;;;12.18;3.03;;;;;;;2.89;63.44;100770.63;5051212;28;20029;-66
2023/03/11 03:26:36;;;;;;;8.52;2.80;;;;;;;2.85;63.55;100772.09;5058380;28;20495;-66
2023/03/11 03:29:03;;;;;;;9.15;3.05;;;;;;;2.83;63.32;100776.91;5066624;28;20032;-67
2023/03/11 03:31:28;;;;;;;7.45;2.90;;;;;;;2.77;63.53;100775.84;5070375;28;20025;-67
2023/03/11 03:33:53;;;;;;;7.78;2.97;;;;;;;2.78;63.59;100787.66;5067896;28;20365;-67
2023/03/11 03:36:18;;;;;;;8.38;2.85;;;;;;;2.79;63.78;100784.72;5069644;28;20032;-67
2023/03/11 03:38:44;;;;;;;5.70;2.60;;;;;;;2.75;63.78;100780.69;5059593;28;20032;-66
2023/03/11 03:41:12;;;;;;;7.70;2.80;;;;;;;2.74;63.61;100798.19;5070032;28;20025;-66
2023/03/11 03:43:37;;;;;;;7.85;3.55;;;;;;;2.72;63.58;100791.22;5061398;28;20029;-66
2023/03/11 03:46:04;;;;;;;7.50;3.00;;;;;;;2.69;63.55;100798.78;5070769;28;20070;-66
2023/03/11 03:48:30;;;;;;;7.93;2.92;;;;;;;2.72;64.31;100803.03;5069035;28;20106;-66
2023/03/11 03:50:55;;;;;;;8.90;3.03;;;;;;;2.67;64.01;100797.28;5069749;28;20687;-66
2023/03/11 03:53:21;;;;;;;5.60;2.83;;;;;;;2.68;63.43;100807.22;5070260;28;20028;-66
2023/03/11 03:55:48;;;;;;;8.68;3.25;;;;;;;2.67;64.00;100802.78;5069506;28;20028;-67
2023/03/11 03:58:13;;;;;;;7.68;3.10;;;;;;;2.67;64.21;100806.38;5069394;28;20027;-67
2023/03/11 04:00:39;;;;;;;4.97;2.80;;;;;;;2.69;64.04;100811.66;5063618;28;20025;-67
2023/03/11 04:03:05;;;;;;;9.98;3.30;;;;;;;2.70;64.21;100810.59;5063918;28;20464;-66
2023/03/11 04:05:30;;;;;;;9.55;3.17;;;;;;;2.69;64.08;100808.91;5070686;28;20087;-66
2023/03/11 04:07:56;;;;;;;9.93;3.35;;;;;;;2.70;64.00;100816.91;5070554;28;20037;-66
2023/03/11 04:10:21;;;;;;;6.53;3.22;;;;;;;2.68;64.28;100813.53;5069497;28;20487;-66
2023/03/11 04:12:46;;;;;;;9.07;3.03;;;;;;;2.67;63.47;100813.72;5070349;28;20040;-66
2023/03/11 04:15:12;;;;;;;9.95;3.22;;;;;;;2.66;64.25;100817.53;5070262;28;20029;-66
2023/03/11 04:17:37;;;;;;;6.00;2.75;;;;;;;2.65;63.95;100818.59;5068611;28;20024;-66
2023/03/11 04:20:06;;;;;;;10.40;3.10;;;;;;;2.65;63.91;100824.06;5065223;28;20070;-66
2023/03/11 04:22:32;;;;;;;7.95;2.80;;;;;;;2.64;64.42;100817.75;5069497;28;20032;-67
2023/03/11 04:24:57;;;;;;;6.70;3.17;;;;;;;2.65;64.31;100815.84;5069472;28;20480;-66
2023/03/11 04:27:22;;;;;;;9.43;3.53;;;;;;;2.64;63.93;100811.41;5070018;28;20028;-66
2023/03/11 04:29:48;;;;;;;9.35;2.70;;;;;;;2.61;64.79;100820.03;5069407;28;20024;-66
2023/03/11 04:32:13;;;;;;;8.07;2.85;;;;;;;2.60;63.69;100821.09;5069800;28;20093;-66
2023/03/11 04:34:38;;;;;;;8.25;3.03;;;;;;;2.58;63.91;100829.50;5068405;28;20056;-66
2023/03/11 04:37:04;;;;;;;8.57;2.85;;;;;;;2.57;64.02;100826.97;5066677;28;20036;-66
2023/03/11 04:39:29;;;;;;;7.28;2.75;;;;;;;2.57;64.23;100816.00;5069288;28;20469;-66
2023/03/11 04:41:55;;;;;;;5.15;2.65;;;;;;;2.57;64.09;100824.22;5069613;28;20029;-67
2023/03/11 04:44:21;;;;;;;8.48;3.33;;;;;;;2.55;64.48;100827.16;5061156;28;20029;-66
2023/03/11 04:46:46;;;;;;;6.68;2.80;;;;;;;2.50;64.04;100826.91;5061161;28;20036;-67
2023/03/11 04:49:11;;;;;;;9.30;3.33;;;;;;;2.49;64.63;100825.22;5069792;28;20024;-66
2023/03/11 04:51:37;;;;;;;7.07;3.10;;;;;;;2.51;64.40;100831.34;5062783;28;20025;-67
2023/03/11 04:54:02;;;;;;;4.60;2.90;;;;;;;2.47;64.41;100830.91;5067561;28;20526;-66
2023/03/11 04:56:28;;;;;;;9.00;3.33;;;;;;;2.49;64.33;100833.44;5063290;28;20032;-67
2023/03/11 04:58:53;;;;;;;5.72;3.10;;;;;;;2.44;64.36;100828.59;5056819;28;20552;-66
2023/03/11 05:01:18;;;;;;;5.50;3.10;;;;;;;2.42;65.21;100821.59;5071227;28;20028;-66
2023/03/11 05:03:45;;;;;;;8.40;2.72;;;;;;;2.38;65.58;100821.16;5064537;28;20458;-66
2023/03/11 05:06:10;;;;;;;9.88;3.03;;;;;;;2.38;64.57;100823.03;5053280;28;20053;-66
2023/03/11 05:08:35;;;;;;;8.82;2.67;;;;;;;2.37;64.61;100821.38;5056343;28;20071;-66
2023/03/11 05:11:01;;;;;;;8.18;3.22;;;;;;;2.37;65.21;100821.38;5058636;28;20044;-66
2023/03/11 05:13:26;;;;;;;8.65;2.90;;;;;;;2.35;64.90;100834.41;5053356;28;20060;-67
2023/03/11 05:15:51;;;;;;;8.18;3.03;;;;;;;2.35;65.21;100837.97;5053652;28;20056;-66
2023/03/11 05:18:17;;;;;;;6.68;3.03;;;;;;;2.35;65.39;100848.09;5053272;28;20106;-66
2023/03/11 05:20:42;;;;;;;6.90;3.20;;;;;;;2.33;64.84;100841.97;5052663;28;20033;-66
2023/03/11 05:23:07;;;;;;;6.78;3.15;;;;;;;2.31;65.01;100849.53;5053671;28;20025;-66
2023/03/11 05:25:34;;;;;;;5.65;3.10;;;;;;;2.25;65.28;100845.72;5069244;28;20048;-66
2023/03/11 05:27:59;;;;;;;6.60;3.15;;;;;;;2.26;65.78;100852.88;5066983;28;20028;-66
2023/03/11 05:30:24;;;;;;;12.15;3.00;;;;;;;2.25;66.06;100856.66;5072059;28;20039;-66
2023/03/11 05:32:50;;;;;;;10.65;3.40;;;;;;;2.24;65.28;100854.09;5072768;28;20078;-67
2023/03/11 05:35:15;;;;;;;4.10;2.63;;;;;;;2.24;65.46;100859.59;5072053;28;20482;-67
2023/03/11 05:37:41;;;;;;;9.70;3.20;;;;;;;2.24;65.48;100862.31;5072841;28;20016;-67
2023/03/11 05:40:09;;;;;;;9.52;3.97;;;;;;;2.18;64.98;100863.97;5070525;28;20028;-67
2023/03/11 05:42:34;;;;;;;7.97;3.97;;;;;;;2.14;64.97;100866.25;5072602;28;20378;-67
2023/03/11 05:44:59;;;;;;;8.57;3.67;;;;;;;2.15;64.91;100859.72;5070925;28;20123;-67
2023/03/11 05:47:25;;;;;;;7.80;3.40;;;;;;;2.13;65.79;100866.47;5061663;28;20471;-67
2023/03/11 05:49:50;;;;;;;8.52;3.63;;;;;;;2.12;65.84;100871.09;5072964;28;20024;-67
2023/03/11 05:52:16;;;;;;;9.63;4.22;;;;;;;2.12;65.75;100873.84;5072863;28;20464;-66
2023/03/11 05:54:41;;;;;;;6.10;3.60;;;;;;;2.09;65.24;100873.38;5072182;28;20090;-66
2023/03/11 05:57:06;;;;;;;5.95;3.60;;;;;;;2.10;65.60;100875.06;5070043;28;20093;-67
2023/03/11 05:59:34;;;;;;;7.57;3.88;;;;;;;2.09;65.52;100871.50;5054755;28;20060;-66
2023/03/11 06:02:00;;;;;;;7.50;3.33;;;;;;;2.05;65.33;100878.41;5058284;28;20463;-67
2023/03/11 06:04:26;;;;;;;9.32;4.00;;;;;;;2.05;65.05;100877.56;5062573;28;20047;-66
2023/03/11 06:06:51;;;;;;;7.22;3.85;;;;;;;2.05;65.48;100881.16;5061135;28;20456;-66
2023/03/11 06:09:16;;;;;;;5.90;3.33;;;;;;;2.05;65.68;100886.63;5063122;28;20033;-66
2023/03/11 06:11:42;;;;;;;6.28;3.40;;;;;;;2.05;65.76;100885.78;5071241;28;20066;-66
2023/03/11 06:14:12;;;;;;;7.60;3.83;;;;;;;2.02;65.67;100897.97;5068589;28;20021;-67
2023/03/11 06:16:38;;;;;;;8.70;5.10;;;;;;;2.01;65.72;100893.53;5056204;28;20029;-66
2023/03/11 06:19:04;;;;;;;21.95;11.73;;;;;;;1.99;66.09;100890.13;5067265;28;20055;-67
2023/03/11 06:21:29;;;;;;;26.92;14.32;;;;;;;2.01;66.36;100896.28;5072390;28;20032;-68
2023/03/11 06:23:54;;;;;;;30.73;19.65;;;;;;;1.97;65.46;100905.91;5070979;28;20475;-67
2023/03/11 06:26:21;;;;;;;26.98;16.35;;;;;;;2.00;66.16;100908.25;5072148;28;20047;-66
2023/03/11 06:28:48;;;;;;;16.23;11.48;;;;;;;1.99;65.42;100909.28;5070638;28;20036;-66
2023/03/11 06:31:16;;;;;;;15.23;9.30;;;;;;;2.00;65.91;100912.88;5066387;28;20103;-64
2023/03/11 06:33:42;;;;;;;18.67;12.20;;;;;;;2.00;65.59;100916.47;5062442;28;20032;-65
2023/03/11 06:36:09;;;;;;;30.08;15.40;;;;;;;2.00;65.82;100915.63;5069331;28;20397;-65
2023/03/11 06:38:35;;;;;;;38.28;18.60;;;;;;;2.01;65.64;100917.34;5055966;28;20094;-65
2023/03/11 06:41:02;;;;;;;28.73;16.70;;;;;;;1.99;65.91;100922.13;5052123;28;20033;-64
2023/03/11 06:43:28;;;;;;;26.02;14.57;;;;;;;1.97;66.05;100927.81;5050989;28;20460;-64
2023/03/11 06:45:53;;;;;;;18.15;11.18;;;;;;;1.99;65.04;100933.94;5065159;28;20037;-65
2023/03/11 06:48:18;;;;;;;21.10;9.52;;;;;;;1.96;65.34;100937.94;5065684;28;20024;-66
2023/03/11 06:50:44;;;;;;;12.25;6.82;;;;;;;2.02;65.10;100938.19;5064199;28;20468;-67
2023/03/11 06:53:09;;;;;;;14.82;5.65;;;;;;;2.00;65.57;100945.72;5068073;28;20048;-66
2023/03/11 06:55:35;;;;;;;10.43;4.80;;;;;;;2.04;65.26;100950.63;5071467;28;20025;-66
2023/03/11 06:58:00;;;;;;;12.93;5.13;;;;;;;2.05;65.51;100954.22;5071047;28;20036;-66
2023/03/11 07:00:26;;;;;;;11.60;5.70;;;;;;;2.04;66.03;100957.97;5063546;28;20099;-66
2023/03/11 07:02:51;;;;;;;14.18;6.05;;;;;;;2.06;65.35;100966.88;5062707;28;20506;-66
2023/03/11 07:05:17;;;;;;;13.95;6.63;;;;;;;2.07;65.35;100968.56;5062971;28;20122;-69
2023/03/11 07:07:42;;;;;;;13.75;7.10;;;;;;;2.04;65.75;100975.25;5057148;28;20226;-66
2023/03/11 07:10:08;;;;;;;12.07;6.30;;;;;;;2.07;65.93;100980.34;5065647;28;20131;-66
2023/03/11 07:12:34;;;;;;;10.57;6.10;;;;;;;2.11;66.21;100978.06;5065228;28;20044;-67
2023/03/11 07:14:59;;;;;;;8.50;5.32;;;;;;;2.10;66.09;100981.84;5071297;28;20024;-66
2023/03/11 07:17:25;;;;;;;24.27;10.60;;;;;;;2.11;66.15;100983.53;5071309;28;20029;-66
2023/03/11 07:19:50;;;;;;;29.38;11.25;;;;;;;2.13;65.62;100982.31;5070780;28;20031;-67
2023/03/11 07:22:16;;;;;;;40.20;15.60;;;;;;;2.13;65.41;100985.06;5071246;28;20111;-67
2023/03/11 07:24:44;;;;;;;41.78;14.80;;;;;;;2.12;65.70;100988.84;5070806;28;20111;-66
2023/03/11 07:27:09;;;;;;;42.15;16.13;;;;;;;2.18;65.51;100990.78;5064103;28;20029;-67
2023/03/11 07:29:34;;;;;;;24.60;11.43;;;;;;;2.20;65.74;100987.84;5070693;28;20074;-66
2023/03/11 07:32:00;;;;;;;22.23;9.63;;;;;;;2.24;65.56;100993.78;5070667;28;20027;-67
2023/03/11 07:34:25;;;;;;;16.60;7.85;;;;;;;2.25;65.48;100999.09;5069901;28;20039;-66
2023/03/11 07:36:50;;;;;;;15.50;6.72;;;;;;;2.27;66.05;100996.97;5070692;28;20043;-68
2023/03/11 07:39:17;;;;;;;13.63;6.93;;;;;;;2.32;65.89;100997.25;5070702;28;20217;-67
2023/03/11 07:41:43;;;;;;;11.98;6.80;;;;;;;2.40;65.73;100999.03;5067653;28;20037;-67
2023/03/11 07:44:13;;;;;;;12.00;6.28;;;;;;;2.41;65.10;101003.44;5070316;28;20033;-67
2023/03/11 07:46:38;;;;;;;12.68;5.22;;;;;;;2.46;66.05;100996.31;5064376;28;20036;-67
2023/03/11 07:49:03;;;;;;;11.50;5.15;;;;;;;2.55;65.52;101005.25;5069912;28;20486;-67
2023/03/11 07:51:32;;;;;;;14.50;6.68;;;;;;;2.60;64.47;101004.69;5070479;28;20030;-67
2023/03/11 07:53:59;;;;;;;12.15;5.40;;;;;;;2.66;64.53;101007.47;5069283;28;20036;-68
2023/03/11 07:56:26;;;;;;;7.90;4.10;;;;;;;2.73;64.81;101014.91;5069357;28;20024;-67
2023/03/11 07:58:52;;;;;;;11.27;4.65;;;;;;;2.83;65.47;101023.63;5070513;28;20027;-67
2023/03/11 08:01:20;;;;;;;14.07;4.47;;;;;;;2.93;64.55;101019.50;5067244;28;20028;-67
2023/03/11 08:03:51;;;;;;;4.57;3.22;;;;;;;3.11;64.05;101016.28;5085564;28;20028;-67
2023/03/11 08:06:18;;;;;;;9.95;4.13;;;;;;;3.27;63.80;101030.72;5090634;28;20020;-67
2023/03/11 08:08:44;;;;;;;6.97;3.53;;;;;;;3.43;63.44;101019.44;5075820;28;20033;-67
2023/03/11 08:11:12;;;;;;;8.45;3.20;;;;;;;3.58;63.75;101022.91;5069855;28;20079;-67
2023/03/11 08:13:38;;;;;;;11.25;3.22;;;;;;;3.74;62.77;101023.59;5070171;28;20106;-67
2023/03/11 08:16:05;;;;;;;8.77;3.10;;;;;;;3.87;62.85;101037.38;5069446;28;20115;-67
2023/03/11 08:18:30;;;;;;;7.53;3.38;;;;;;;3.99;62.13;101027.50;5067780;28;20028;-67
2023/03/11 08:20:56;;;;;;;9.40;3.83;;;;;;;4.15;62.05;101029.88;5064097;28;20035;-67
2023/03/11 08:23:21;;;;;;;7.82;3.08;;;;;;;4.29;61.99;101029.94;5061596;28;20464;-67
2023/03/11 08:25:47;;;;;;;8.48;3.00;;;;;;;4.45;61.54;101026.78;5065051;28;20028;-68
2023/03/11 08:28:12;;;;;;;13.57;5.07;;;;;;;4.58;60.73;101026.81;5061026;28;20150;-67
2023/03/11 08:30:37;;;;;;;8.25;3.60;;;;;;;4.70;61.28;101029.78;5060492;28;20028;-67
2023/03/11 08:33:03;;;;;;;8.40;4.97;;;;;;;4.83;59.87;101026.19;5060459;28;20076;-67
2023/03/11 08:35:29;;;;;;;14.25;5.95;;;;;;;4.93;59.35;101032.13;5058391;28;20116;-67
2023/03/11 08:37:54;;;;;;;10.98;4.55;;;;;;;5.03;59.78;101040.81;5058511;28;20162;-66
2023/03/11 08:40:19;;;;;;;13.60;6.43;;;;;;;5.14;58.69;101031.88;5070153;28;20805;-68
2023/03/11 08:42:45;;;;;;;12.70;5.88;;;;;;;5.23;58.73;101031.69;5068675;28;20151;-69
2023/03/11 08:45:10;;;;;;;11.90;4.97;;;;;;;5.37;59.29;101038.84;5057018;28;20121;-68
2023/03/11 08:47:37;;;;;;;8.20;3.35;;;;;;;5.39;57.84;101048.59;5075059;28;20029;-69
2023/03/11 08:50:05;;;;;;;7.00;3.03;;;;;;;5.50;55.78;101043.47;5079976;28;20039;-69
2023/03/11 08:52:31;;;;;;;4.28;2.63;;;;;;;5.55;57.35;101052.78;5083888;28;20040;-71
2023/03/11 08:55:03;;;;;;;7.30;2.85;;;;;;;5.59;56.86;101051.31;5079189;28;20020;-67
2023/03/11 08:57:30;;;;;;;7.53;2.45;;;;;;;5.68;56.57;101056.56;5076443;28;20052;-67
2023/03/11 08:59:57;;;;;;;8.13;2.20;;;;;;;5.70;54.75;101054.44;5066791;28;20028;-67
2023/03/11 09:02:25;;;;;;;6.82;2.53;;;;;;;5.75;54.97;101060.16;5068994;28;20610;-67
2023/03/11 09:04:51;;;;;;;8.40;2.42;;;;;;;5.83;55.14;101063.53;5067862;28;20024;-67
2023/03/11 09:07:16;;;;;;;3.35;1.80;;;;;;;5.87;54.24;101062.03;5068623;28;20535;-67
2023/03/11 09:09:42;;;;;;;3.63;1.85;;;;;;;5.91;50.23;101056.91;5067716;28;20127;-67
2023/03/11 09:12:08;;;;;;;4.72;1.50;;;;;;;5.99;52.05;101055.88;5057640;28;20031;-68
2023/03/11 09:14:36;;;;;;;5.57;1.60;;;;;;;6.09;52.53;101059.00;5067875;28;20024;-68
2023/03/11 09:17:01;;;;;;;3.45;1.70;;;;;;;6.15;51.96;101058.97;5068008;28;20108;-67
2023/03/11 09:19:27;;;;;;;3.25;1.52;;;;;;;6.18;51.10;101062.38;5068611;28;20115;-67
2023/03/11 09:21:52;;;;;;;2.53;1.60;;;;;;;6.21;49.89;101067.41;5069796;28;20082;-67
2023/03/11 09:24:17;;;;;;;6.32;1.85;;;;;;;6.20;48.79;101069.34;5069596;28;20453;-67
2023/03/11 09:26:43;;;;;;;8.07;2.10;;;;;;;6.29;50.28;101067.19;5068183;28;20059;-68
2023/03/11 09:29:08;;;;;;;6.15;1.95;;;;;;;6.35;50.27;101074.56;5067658;28;20052;-68
2023/03/11 09:31:33;;;;;;;4.03;1.80;;;;;;;6.41;50.94;101084.72;5068323;28;20029;-68
2023/03/11 09:33:59;;;;;;;2.60;1.48;;;;;;;6.44;48.36;101078.75;5068944;28;20513;-68
2023/03/11 09:36:24;;;;;;;6.88;1.80;;;;;;;6.43;48.69;101090.84;5069680;28;20029;-68
2023/03/11 09:38:49;;;;;;;4.07;1.63;;;;;;;6.45;49.10;101085.97;5069863;28;20024;-67
2023/03/11 09:41:40;;;;;;;2.80;1.50;;;;;;;6.50;52.04;101080.63;5066254;28;20017;-68
2023/03/11 09:44:16;;;;;;;5.28;2.10;;;;;;;6.56;50.76;101074.25;5065320;28;20074;-67
2023/03/11 09:47:09;;;;;;;4.15;1.88;;;;;;;6.67;50.92;101072.69;5068380;28;20040;-67
2023/03/11 09:49:58;;;;;;;6.53;2.65;;;;;;;6.82;52.02;101081.50;5072752;28;20028;-68
2023/03/11 09:52:31;;;;;;;6.00;2.60;;;;;;;6.78;49.67;101080.25;5070758;28;20045;-69
2023/03/11 09:55:00;;;;;;;7.90;1.98;;;;;;;6.75;47.42;101079.84;5072224;28;20051;-67
2023/03/11 09:57:31;;;;;;;2.13;1.45;;;;;;;6.66;48.24;101081.19;5065770;28;20107;-68
2023/03/11 09:59:57;;;;;;;6.88;1.60;;;;;;;6.63;48.73;101077.78;5070341;28;20059;-68
2023/03/11 10:02:26;;;;;;;4.35;1.45;;;;;;;6.61;49.65;101079.09;5057187;28;20300;-67
2023/03/11 10:05:00;;;;;;;5.07;2.22;;;;;;;6.57;50.39;101084.22;5057876;28;20025;-67
2023/03/11 10:07:40;;;;;;;6.25;1.60;;;;;;;6.54;48.83;101081.88;5053977;28;20132;-68
2023/03/11 10:10:06;;;;;;;3.05;1.45;;;;;;;6.50;47.87;101072.38;5068998;28;20057;-67
2023/03/11 10:13:02;;;;;;;5.55;1.50;;;;;;;6.43;49.65;101078.97;5068622;28;20076;-67
2023/03/11 10:15:40;;;;;;;5.60;1.80;;;;;;;6.36;49.13;101084.53;5070891;28;20032;-66
2023/03/11 10:18:33;;;;;;;3.22;1.30;;;;;;;6.30;49.85;101080.75;5072145;28;20024;-66
2023/03/11 10:21:06;;;;;;;3.92;1.70;;;;;;;6.16;48.40;101092.88;5072413;28;20082;-66
2023/03/11 10:23:59;;;;;;;4.63;1.67;;;;;;;6.13;50.48;101083.16;5071737;28;20037;-66
2023/03/11 10:26:35;;;;;;;5.82;1.88;;;;;;;6.05;49.34;101091.69;5063204;28;20125;-66
2023/03/11 10:29:07;;;;;;;3.72;1.67;;;;;;;6.06;48.52;101096.13;5071547;28;20040;-66
2023/03/11 10:31:53;;;;;;;6.88;2.03;;;;;;;6.25;55.47;101093.47;5066860;28;20055;-61
2023/03/11 10:34:31;;;;;;;4.63;1.42;;;;;;;6.24;49.77;101098.16;5070469;28;20028;-65
2023/03/11 10:37:02;;;;;;;5.70;1.95;;;;;;;6.19;49.58;101100.72;5066557;28;20051;-67
2023/03/11 10:39:31;;;;;;;4.15;1.60;;;;;;;6.18;47.66;101098.19;5058805;28;20021;-65
2023/03/11 10:41:59;;;;;;;5.38;1.70;;;;;;;6.18;47.77;101107.31;5063221;28;20032;-66
2023/03/11 10:44:39;;;;;;;2.97;1.40;;;;;;;6.26;49.67;101106.22;5070090;28;20064;-68
2023/03/11 10:47:05;;;;;;;4.85;1.58;;;;;;;6.27;48.62;101110.66;5065085;28;20114;-66
2023/03/11 10:49:31;;;;;;;6.25;1.85;;;;;;;6.27;48.21;101105.16;5068209;28;20028;-67
2023/03/11 10:51:57;;;;;;;4.90;1.65;;;;;;;6.23;48.85;101107.50;5072664;28;20391;-66
2023/03/11 10:54:29;;;;;;;4.97;1.70;;;;;;;6.21;48.06;101103.25;5065990;28;20080;-66
2023/03/11 10:57:01;;;;;;;6.50;1.70;;;;;;;6.21;47.47;101100.50;5068868;28;20538;-67
2023/03/11 10:59:33;;;;;;;6.30;1.85;;;;;;;6.21;47.73;101100.50;5062848;28;20024;-66
2023/03/11 11:02:20;;;;;;;6.00;2.13;;;;;;;6.24;48.76;101103.66;5087230;28;20339;-66
2023/03/11 11:04:45;;;;;;;4.10;1.85;;;;;;;6.31;47.70;101101.72;5068249;28;20624;-66
2023/03/11 11:07:29;;;;;;;3.50;1.70;;;;;;;6.33;48.85;101098.78;5070721;28;20107;-65
2023/03/11 11:10:15;;;;;;;2.78;1.75;;;;;;;6.36;50.45;101095.56;5054976;28;20505;-65
2023/03/11 11:13:16;;;;;;;3.72;1.30;;;;;;;6.39;50.59;101104.22;5058530;28;20086;-67
2023/03/11 11:15:50;;;;;;;4.93;1.90;;;;;;;6.38;48.65;101096.19;5072156;28;20040;-64
2023/03/11 11:18:16;;;;;;;4.82;1.58;;;;;;;6.38;47.46;101108.06;5070770;28;20024;-64
2023/03/11 11:20:59;;;;;;;6.60;2.28;;;;;;;6.40;48.88;101107.81;5067071;28;20479;-66
2023/03/11 11:23:45;;;;;;;3.92;1.50;;;;;;;6.39;50.27;101111.66;5066112;28;20074;-68
2023/03/11 11:26:23;;;;;;;7.00;1.38;;;;;;;6.37;49.29;101100.03;5074872;28;20025;-69
2023/03/11 11:29:06;;;;;;;4.60;1.65;;;;;;;6.34;48.74;101100.44;5072334;28;20124;-68
2023/03/11 11:31:32;;;;;;;4.80;1.42;;;;;;;6.24;47.14;101100.91;5067891;28;20020;-67
2023/03/11 11:33:58;;;;;;;12.00;1.95;;;;;;;6.31;48.24;101100.88;5058868;28;20045;-66